createdAt,value
2018-11-25T00:00:32.387Z,21.83
2018-11-25T00:03:00.854Z,21.23
2018-11-25T00:05:29.104Z,20.83
2018-11-25T00:07:57.478Z,21.03
2018-11-25T00:10:25.781Z,20.20
2018-11-25T00:12:54.342Z,21.23
2018-11-25T00:15:22.734Z,20.87
2018-11-25T00:17:51.331Z,20.23
2018-11-25T00:20:20.421Z,19.87
2018-11-25T00:22:48.711Z,20.40
2018-11-25T00:25:16.865Z,20.20
2018-11-25T00:27:45.128Z,18.27
2018-11-25T00:30:14.822Z,18.67
2018-11-25T00:32:45.394Z,20.80
2018-11-25T00:35:14.792Z,20.23
2018-11-25T00:37:53.884Z,19.30
2018-11-25T00:40:22.944Z,19.53
2018-11-25T00:42:51.347Z,20.30
2018-11-25T00:45:31.111Z,20.20
2018-11-25T00:48:14.839Z,19.33
2018-11-25T00:50:59.824Z,19.73
2018-11-25T00:53:37.108Z,19.43
2018-11-25T00:56:05.955Z,19.27
2018-11-25T00:58:34.145Z,20.10
2018-11-25T01:01:02.394Z,19.30
2018-11-25T01:03:30.625Z,20.30
2018-11-25T01:05:58.922Z,19.30
2018-11-25T01:08:27.184Z,18.87
2018-11-25T01:10:55.437Z,18.23
2018-11-25T01:13:23.845Z,19.23
2018-11-25T01:15:52.243Z,18.67
2018-11-25T01:18:20.413Z,17.77
2018-11-25T01:20:48.630Z,18.53
2018-11-25T01:23:17.024Z,18.90
2018-11-25T01:25:45.354Z,18.87
2018-11-25T01:28:13.776Z,18.63
2018-11-25T01:30:42.001Z,17.33
2018-11-25T01:33:10.166Z,17.40
2018-11-25T01:35:38.394Z,17.23
2018-11-25T01:38:06.605Z,17.83
2018-11-25T01:40:35.216Z,18.67
2018-11-25T01:43:04.585Z,17.50
2018-11-25T01:45:33.608Z,18.00
2018-11-25T01:48:01.959Z,17.00
2018-11-25T01:50:30.051Z,17.23
2018-11-25T01:52:58.299Z,19.00
2018-11-25T01:55:26.480Z,18.03
2018-11-25T01:57:54.669Z,18.70
2018-11-25T02:00:22.983Z,18.10
2018-11-25T02:02:51.156Z,18.57
2018-11-25T02:05:19.544Z,17.10
2018-11-25T02:07:47.723Z,19.17
2018-11-25T02:10:21.631Z,19.27
2018-11-25T02:12:50.136Z,17.33
2018-11-25T02:15:18.407Z,17.90
2018-11-25T02:17:46.790Z,17.47
2018-11-25T02:20:19.068Z,18.87
2018-11-25T02:22:47.265Z,18.97
2018-11-25T02:25:15.471Z,19.67
2018-11-25T02:27:43.826Z,20.23
2018-11-25T02:30:12.740Z,19.50
2018-11-25T02:32:41.171Z,19.43
2018-11-25T02:35:10.114Z,19.27
2018-11-25T02:37:38.204Z,19.13
2018-11-25T02:40:08.278Z,18.70
2018-11-25T02:42:36.453Z,18.30
2018-11-25T02:45:05.300Z,17.77
2018-11-25T02:47:33.617Z,18.93
2018-11-25T02:50:01.913Z,18.47
2018-11-25T02:52:30.441Z,18.87
2018-11-25T02:54:58.759Z,18.10
2018-11-25T02:57:27.087Z,16.87
2018-11-25T02:59:55.276Z,17.43
2018-11-25T03:02:23.516Z,17.47
2018-11-25T03:04:51.686Z,18.30
2018-11-25T03:07:19.797Z,17.67
2018-11-25T03:09:48.093Z,17.93
2018-11-25T03:12:16.468Z,17.37
2018-11-25T03:14:44.629Z,16.57
2018-11-25T03:17:13.218Z,16.30
2018-11-25T03:19:41.347Z,16.60
2018-11-25T03:22:09.616Z,18.40
2018-11-25T03:24:37.743Z,18.00
2018-11-25T03:27:05.758Z,17.10
2018-11-25T03:29:34.144Z,16.70
2018-11-25T03:32:02.366Z,18.03
2018-11-25T03:34:30.756Z,15.83
2018-11-25T03:36:59.101Z,16.10
2018-11-25T03:39:27.933Z,15.67
2018-11-25T03:41:56.233Z,15.07
2018-11-25T03:44:24.445Z,14.63
2018-11-25T03:46:52.595Z,14.47
2018-11-25T03:49:20.896Z,14.23
2018-11-25T03:51:49.090Z,15.03
2018-11-25T03:54:17.401Z,14.47
2018-11-25T03:56:45.615Z,14.20
2018-11-25T03:59:14.077Z,15.03
2018-11-25T04:01:42.171Z,15.33
2018-11-25T04:04:10.353Z,15.37
2018-11-25T04:06:38.598Z,16.90
2018-11-25T04:09:08.035Z,14.67
2018-11-25T04:11:36.587Z,15.67
2018-11-25T04:14:04.967Z,16.13
2018-11-25T04:16:33.308Z,16.87
2018-11-25T04:19:01.554Z,15.80
2018-11-25T04:21:29.765Z,16.07
2018-11-25T04:23:58.069Z,16.50
2018-11-25T04:26:26.293Z,17.63
2018-11-25T04:28:54.933Z,17.37
2018-11-25T04:31:23.347Z,17.70
2018-11-25T04:33:51.764Z,18.27
2018-11-25T04:36:20.000Z,20.37
2018-11-25T04:38:48.353Z,19.23
2018-11-25T04:41:17.336Z,19.00
2018-11-25T04:43:45.865Z,19.80
2018-11-25T04:46:14.131Z,19.30
2018-11-25T04:48:42.800Z,19.57
2018-11-25T04:51:12.147Z,20.63
2018-11-25T04:53:40.268Z,20.93
2018-11-25T04:56:08.821Z,21.37
2018-11-25T04:58:37.407Z,19.97
2018-11-25T05:01:06.553Z,22.57
2018-11-25T05:03:35.510Z,23.90
2018-11-25T05:06:03.702Z,21.77
2018-11-25T05:08:31.821Z,22.70
2018-11-25T05:11:00.177Z,21.43
2018-11-25T05:13:28.435Z,23.07
2018-11-25T05:15:56.734Z,24.10
2018-11-25T05:18:25.423Z,23.30
2018-11-25T05:20:54.333Z,22.93
2018-11-25T05:23:22.573Z,24.30
2018-11-25T05:25:51.622Z,23.63
2018-11-25T05:28:19.876Z,23.53
2018-11-25T05:30:50.389Z,23.97
2018-11-25T05:33:20.350Z,24.40
2018-11-25T05:35:48.922Z,24.63
2018-11-25T05:38:18.639Z,22.83
2018-11-25T05:40:46.904Z,24.60
2018-11-25T05:43:15.633Z,23.40
2018-11-25T05:45:43.977Z,24.00
2018-11-25T05:48:12.213Z,24.63
2018-11-25T05:50:40.383Z,23.13
2018-11-25T05:53:09.305Z,25.30
2018-11-25T05:55:37.796Z,24.50
2018-11-25T05:58:07.282Z,24.90
2018-11-25T06:00:36.327Z,22.70
2018-11-25T06:03:05.115Z,25.13
2018-11-25T06:05:33.452Z,24.47
2018-11-25T06:08:02.941Z,22.97
2018-11-25T06:10:31.121Z,24.57
2018-11-25T06:12:59.595Z,23.93
2018-11-25T06:15:27.881Z,24.30
2018-11-25T06:17:56.092Z,25.07
2018-11-25T06:20:24.314Z,23.37
2018-11-25T06:22:52.940Z,24.20
2018-11-25T06:25:21.357Z,22.40
2018-11-25T06:27:50.365Z,22.97
2018-11-25T06:30:19.812Z,24.40
2018-11-25T06:32:48.278Z,24.27
2018-11-25T06:35:16.940Z,22.70
2018-11-25T06:37:45.218Z,22.13
2018-11-25T06:40:15.621Z,22.83
2018-11-25T06:42:44.488Z,23.60
2018-11-25T06:45:16.322Z,21.83
2018-11-25T06:47:44.408Z,22.47
2018-11-25T06:50:12.935Z,20.70
2018-11-25T06:52:41.622Z,22.53
2018-11-25T06:55:10.415Z,21.73
2018-11-25T06:57:38.953Z,22.07
2018-11-25T07:00:09.635Z,21.70
2018-11-25T07:02:37.847Z,22.97
2018-11-25T07:05:06.685Z,23.13
2018-11-25T07:07:34.728Z,22.00
2018-11-25T07:10:03.085Z,23.07
2018-11-25T07:12:31.241Z,21.87
2018-11-25T07:14:59.378Z,21.53
2018-11-25T07:17:27.657Z,21.33
2018-11-25T07:19:55.897Z,23.23
2018-11-25T07:22:24.411Z,22.60
2018-11-25T07:24:52.529Z,21.73
2018-11-25T07:27:20.884Z,22.33
2018-11-25T07:29:49.498Z,22.53
2018-11-25T07:32:17.983Z,22.27
2018-11-25T07:34:46.409Z,22.13
2018-11-25T07:37:14.718Z,20.67
2018-11-25T07:39:42.862Z,22.53
2018-11-25T07:42:11.234Z,21.87
2018-11-25T07:44:39.347Z,21.83
2018-11-25T07:47:07.640Z,22.00
2018-11-25T07:49:35.922Z,20.80
2018-11-25T07:52:04.481Z,20.90
2018-11-25T07:54:32.702Z,21.33
2018-11-25T07:57:00.864Z,21.87
2018-11-25T07:59:29.128Z,21.53
2018-11-25T08:01:57.993Z,21.53
2018-11-25T08:04:26.684Z,22.27
2018-11-25T08:06:54.948Z,20.90
2018-11-25T08:09:23.206Z,21.10
2018-11-25T08:11:51.723Z,20.00
2018-11-25T08:14:19.921Z,21.03
2018-11-25T08:16:48.025Z,21.90
2018-11-25T08:19:18.064Z,20.67
2018-11-25T08:21:47.208Z,20.43
2018-11-25T08:24:15.691Z,19.13
2018-11-25T08:26:43.915Z,19.73
2018-11-25T08:29:12.672Z,20.43
2018-11-25T08:31:44.655Z,19.97
2018-11-25T08:34:13.242Z,17.90
2018-11-25T08:36:42.205Z,18.13
2018-11-25T08:39:10.977Z,19.13
2018-11-25T08:41:39.167Z,16.87
2018-11-25T08:44:07.620Z,18.13
2018-11-25T08:46:35.798Z,16.97
2018-11-25T08:49:04.322Z,17.83
2018-11-25T08:51:32.493Z,18.20
2018-11-25T08:54:00.733Z,17.67
2018-11-25T08:56:29.226Z,16.07
2018-11-25T08:58:57.636Z,16.50
2018-11-25T09:01:25.882Z,16.90
2018-11-25T09:03:54.371Z,17.13
2018-11-25T09:06:23.199Z,16.13
2018-11-25T09:08:53.171Z,16.63
2018-11-25T09:11:22.548Z,17.97
2018-11-25T09:13:51.231Z,15.93
2018-11-25T09:16:19.512Z,14.73
2018-11-25T09:18:48.107Z,15.60
2018-11-25T09:21:16.680Z,15.53
2018-11-25T09:23:45.480Z,15.07
2018-11-25T09:26:13.969Z,15.97
2018-11-25T09:28:42.375Z,15.90
2018-11-25T09:31:10.705Z,15.63
2018-11-25T09:33:39.048Z,14.00
2018-11-25T09:36:07.330Z,15.47
2018-11-25T09:38:37.266Z,15.57
2018-11-25T09:41:06.299Z,15.10
2018-11-25T09:43:35.469Z,13.43
2018-11-25T09:46:04.600Z,14.10
2018-11-25T09:48:38.723Z,15.77
2018-11-25T09:51:08.327Z,15.10
2018-11-25T09:53:38.022Z,16.23
2018-11-25T09:56:07.678Z,15.63
2018-11-25T09:58:38.871Z,16.50
2018-11-25T10:01:08.614Z,17.23
2018-11-25T10:03:36.791Z,15.13
2018-11-25T10:06:05.565Z,15.70
2018-11-25T10:08:34.061Z,14.30
2018-11-25T10:11:03.050Z,12.80
2018-11-25T10:13:34.387Z,12.40
2018-11-25T10:16:02.985Z,12.43
2018-11-25T10:18:32.017Z,12.73
2018-11-25T10:21:00.403Z,13.33
2018-11-25T10:23:28.523Z,14.17
2018-11-25T10:25:56.938Z,14.30
2018-11-25T10:28:25.059Z,12.67
2018-11-25T10:30:53.170Z,13.90
2018-11-25T10:33:21.377Z,13.63
2018-11-25T10:35:49.698Z,14.07
2018-11-25T10:38:19.100Z,13.27
2018-11-25T10:40:48.027Z,13.13
2018-11-25T10:43:17.103Z,14.10
2018-11-25T10:45:47.456Z,13.57
2018-11-25T10:48:15.642Z,14.63
2018-11-25T10:50:43.718Z,11.47
2018-11-25T10:53:12.111Z,12.53
2018-11-25T10:55:40.163Z,12.50
2018-11-25T10:58:15.110Z,11.63
2018-11-25T11:00:49.745Z,12.50
2018-11-25T11:03:23.800Z,13.87
2018-11-25T11:05:54.801Z,13.33
2018-11-25T11:08:23.097Z,11.40
2018-11-25T11:10:51.303Z,10.50
2018-11-25T11:13:21.027Z,10.37
2018-11-25T11:15:49.148Z,10.97
2018-11-25T11:18:17.596Z,11.93
2018-11-25T11:20:46.041Z,12.60
2018-11-25T11:23:14.330Z,12.40
2018-11-25T11:25:42.480Z,10.73
2018-11-25T11:28:10.888Z,10.47
2018-11-25T11:30:39.077Z,10.90
2018-11-25T11:33:07.397Z,10.23
2018-11-25T11:35:35.478Z,11.00
2018-11-25T11:38:03.632Z,12.63
2018-11-25T11:40:31.806Z,12.73
2018-11-25T11:43:00.037Z,13.07
2018-11-25T11:45:28.425Z,14.00
2018-11-25T11:47:58.881Z,13.73
2018-11-25T11:50:27.901Z,13.07
2018-11-25T11:53:24.119Z,13.97
2018-11-25T11:55:52.357Z,13.83
2018-11-25T11:58:20.552Z,13.40
2018-11-25T12:00:49.405Z,15.53
2018-11-25T12:03:26.106Z,14.20
2018-11-25T12:05:45.777Z,15.57
2018-11-25T12:08:14.092Z,17.47
2018-11-25T12:10:42.867Z,16.97
2018-11-25T12:13:11.202Z,16.00
2018-11-25T12:15:39.482Z,15.60
2018-11-25T12:18:08.020Z,16.93
2018-11-25T12:20:36.272Z,16.97
2018-11-25T12:23:04.526Z,16.23
2018-11-25T12:25:33.100Z,16.43
2018-11-25T12:28:01.157Z,17.40
2018-11-25T12:30:29.699Z,16.33
2018-11-25T12:32:57.938Z,17.40
2018-11-25T12:35:26.203Z,17.60
2018-11-25T12:37:54.861Z,16.43
2018-11-25T12:40:23.135Z,16.33
2018-11-25T12:42:52.776Z,17.63
2018-11-25T12:45:20.981Z,18.50
2018-11-25T12:47:52.119Z,18.17
2018-11-25T12:50:28.401Z,19.80
2018-11-25T12:52:59.601Z,19.50
2018-11-25T12:55:27.487Z,19.93
2018-11-25T12:57:56.265Z,19.67
2018-11-25T13:00:26.180Z,19.47
2018-11-25T13:02:57.047Z,21.10
2018-11-25T13:05:25.494Z,22.00
2018-11-25T13:07:54.332Z,20.23
2018-11-25T13:10:22.760Z,21.20
2018-11-25T13:12:51.298Z,21.57
2018-11-25T13:15:19.888Z,22.33
2018-11-25T13:17:49.061Z,22.83
2018-11-25T13:20:18.760Z,22.97
2018-11-25T13:22:46.965Z,22.27
2018-11-25T13:25:15.682Z,21.03
2018-11-25T13:27:44.043Z,23.40
2018-11-25T13:30:13.213Z,20.67
2018-11-25T13:32:42.696Z,22.30
